sensor_id;sensor_type;location;lat;lon;timestamp;P1;durP1;ratioP1;P2;durP2;ratioP2
64031;SDS011;50278;47.796;11.968;2023-04-06T00:01:00;10.63;;;6.50;;
64031;SDS011;50278;47.796;11.968;2023-04-06T00:03:26;10.05;;;6.88;;
64031;SDS011;50278;47.796;11.968;2023-04-06T00:05:51;10.68;;;6.05;;
64031;SDS011;50278;47.796;11.968;2023-04-06T00:08:17;10.40;;;6.68;;
64031;SDS011;50278;47.796;11.968;2023-04-06T00:10:42;9.90;;;6.20;;
64031;SDS011;50278;47.796;11.968;2023-04-06T00:13:08;8.60;;;6.03;;
64031;SDS011;50278;47.796;11.968;2023-04-06T00:15:33;7.88;;;6.15;;
64031;SDS011;50278;47.796;11.968;2023-04-06T00:17:59;8.88;;;5.93;;
64031;SDS011;50278;47.796;11.968;2023-04-06T00:20:25;8.55;;;6.68;;
64031;SDS011;50278;47.796;11.968;2023-04-06T00:22:51;9.65;;;6.32;;
64031;SDS011;50278;47.796;11.968;2023-04-06T00:25:16;9.73;;;5.95;;
64031;SDS011;50278;47.796;11.968;2023-04-06T00:27:42;9.07;;;6.45;;
64031;SDS011;50278;47.796;11.968;2023-04-06T00:30:08;11.77;;;6.88;;
64031;SDS011;50278;47.796;11.968;2023-04-06T00:32:34;9.85;;;6.13;;
64031;SDS011;50278;47.796;11.968;2023-04-06T00:35:01;9.77;;;6.63;;
64031;SDS011;50278;47.796;11.968;2023-04-06T00:37:31;10.57;;;6.13;;
64031;SDS011;50278;47.796;11.968;2023-04-06T00:39:57;10.73;;;6.07;;
64031;SDS011;50278;47.796;11.968;2023-04-06T00:42:23;8.68;;;5.45;;
64031;SDS011;50278;47.796;11.968;2023-04-06T00:44:55;12.15;;;7.30;;
64031;SDS011;50278;47.796;11.968;2023-04-06T00:47:22;9.48;;;6.38;;
64031;SDS011;50278;47.796;11.968;2023-04-06T00:49:50;12.88;;;6.80;;
64031;SDS011;50278;47.796;11.968;2023-04-06T00:52:15;12.23;;;6.63;;
64031;SDS011;50278;47.796;11.968;2023-04-06T00:54:44;10.10;;;6.72;;
64031;SDS011;50278;47.796;11.968;2023-04-06T00:57:11;10.15;;;6.85;;
64031;SDS011;50278;47.796;11.968;2023-04-06T00:59:38;11.00;;;5.78;;
64031;SDS011;50278;47.796;11.968;2023-04-06T01:02:07;9.10;;;6.25;;
64031;SDS011;50278;47.796;11.968;2023-04-06T01:04:45;10.07;;;6.75;;
64031;SDS011;50278;47.796;11.968;2023-04-06T01:07:19;9.07;;;6.90;;
64031;SDS011;50278;47.796;11.968;2023-04-06T01:10:00;11.25;;;6.32;;
64031;SDS011;50278;47.796;11.968;2023-04-06T01:12:27;11.50;;;6.75;;
64031;SDS011;50278;47.796;11.968;2023-04-06T01:14:53;9.20;;;6.18;;
64031;SDS011;50278;47.796;11.968;2023-04-06T01:17:20;12.77;;;7.22;;
64031;SDS011;50278;47.796;11.968;2023-04-06T01:19:45;10.75;;;6.68;;
64031;SDS011;50278;47.796;11.968;2023-04-06T01:22:20;10.48;;;7.13;;
64031;SDS011;50278;47.796;11.968;2023-04-06T01:24:54;15.00;;;7.72;;
64031;SDS011;50278;47.796;11.968;2023-04-06T01:27:25;12.15;;;7.00;;
64031;SDS011;50278;47.796;11.968;2023-04-06T01:30:06;9.75;;;6.55;;
64031;SDS011;50278;47.796;11.968;2023-04-06T01:32:52;10.88;;;7.10;;
64031;SDS011;50278;47.796;11.968;2023-04-06T01:35:29;10.65;;;7.82;;
64031;SDS011;50278;47.796;11.968;2023-04-06T01:38:12;11.07;;;7.00;;
64031;SDS011;50278;47.796;11.968;2023-04-06T01:40:37;9.63;;;6.50;;
64031;SDS011;50278;47.796;11.968;2023-04-06T01:43:03;9.98;;;7.00;;
64031;SDS011;50278;47.796;11.968;2023-04-06T01:45:38;11.85;;;7.30;;
64031;SDS011;50278;47.796;11.968;2023-04-06T01:48:13;11.70;;;6.85;;
64031;SDS011;50278;47.796;11.968;2023-04-06T01:50:39;11.02;;;7.13;;
64031;SDS011;50278;47.796;11.968;2023-04-06T01:53:06;12.10;;;7.05;;
64031;SDS011;50278;47.796;11.968;2023-04-06T01:55:33;10.35;;;7.65;;
64031;SDS011;50278;47.796;11.968;2023-04-06T01:58:16;9.70;;;7.32;;
64031;SDS011;50278;47.796;11.968;2023-04-06T02:00:41;9.52;;;7.20;;
64031;SDS011;50278;47.796;11.968;2023-04-06T02:03:07;10.85;;;7.15;;
64031;SDS011;50278;47.796;11.968;2023-04-06T02:05:33;12.38;;;7.25;;
64031;SDS011;50278;47.796;11.968;2023-04-06T02:08:10;10.57;;;6.35;;
64031;SDS011;50278;47.796;11.968;2023-04-06T02:10:38;12.02;;;6.75;;
64031;SDS011;50278;47.796;11.968;2023-04-06T02:13:12;12.23;;;7.78;;
64031;SDS011;50278;47.796;11.968;2023-04-06T02:15:42;10.25;;;6.55;;
64031;SDS011;50278;47.796;11.968;2023-04-06T02:18:08;10.27;;;6.82;;
64031;SDS011;50278;47.796;11.968;2023-04-06T02:20:35;11.38;;;7.35;;
64031;SDS011;50278;47.796;11.968;2023-04-06T02:23:00;10.82;;;7.22;;
64031;SDS011;50278;47.796;11.968;2023-04-06T02:25:26;13.10;;;7.57;;
64031;SDS011;50278;47.796;11.968;2023-04-06T02:27:51;12.50;;;7.82;;
64031;SDS011;50278;47.796;11.968;2023-04-06T02:30:17;10.77;;;7.90;;
64031;SDS011;50278;47.796;11.968;2023-04-06T02:32:43;11.57;;;7.93;;
64031;SDS011;50278;47.796;11.968;2023-04-06T02:35:09;9.40;;;6.78;;
64031;SDS011;50278;47.796;11.968;2023-04-06T02:37:34;11.20;;;7.10;;
64031;SDS011;50278;47.796;11.968;2023-04-06T02:40:00;11.52;;;7.20;;
64031;SDS011;50278;47.796;11.968;2023-04-06T02:42:28;9.75;;;6.88;;
64031;SDS011;50278;47.796;11.968;2023-04-06T02:44:53;8.35;;;6.18;;
64031;SDS011;50278;47.796;11.968;2023-04-06T02:47:23;14.63;;;8.30;;
64031;SDS011;50278;47.796;11.968;2023-04-06T02:49:50;25.05;;;8.07;;
64031;SDS011;50278;47.796;11.968;2023-04-06T02:52:16;13.25;;;6.60;;
64031;SDS011;50278;47.796;11.968;2023-04-06T02:54:43;9.80;;;6.88;;
64031;SDS011;50278;47.796;11.968;2023-04-06T02:57:09;11.57;;;7.40;;
64031;SDS011;50278;47.796;11.968;2023-04-06T02:59:39;11.90;;;7.97;;
64031;SDS011;50278;47.796;11.968;2023-04-06T03:02:14;12.38;;;7.68;;
64031;SDS011;50278;47.796;11.968;2023-04-06T03:04:41;13.73;;;7.85;;
64031;SDS011;50278;47.796;11.968;2023-04-06T03:07:17;15.57;;;8.02;;
64031;SDS011;50278;47.796;11.968;2023-04-06T03:09:42;15.00;;;8.65;;
64031;SDS011;50278;47.796;11.968;2023-04-06T03:12:08;11.07;;;7.30;;
64031;SDS011;50278;47.796;11.968;2023-04-06T03:14:47;10.50;;;7.57;;
64031;SDS011;50278;47.796;11.968;2023-04-06T03:17:12;10.05;;;7.18;;
64031;SDS011;50278;47.796;11.968;2023-04-06T03:19:38;13.18;;;7.82;;
64031;SDS011;50278;47.796;11.968;2023-04-06T03:22:04;11.90;;;7.90;;
64031;SDS011;50278;47.796;11.968;2023-04-06T03:24:30;12.57;;;8.38;;
64031;SDS011;50278;47.796;11.968;2023-04-06T03:26:55;12.38;;;7.47;;
64031;SDS011;50278;47.796;11.968;2023-04-06T03:29:22;13.80;;;7.90;;
64031;SDS011;50278;47.796;11.968;2023-04-06T03:31:48;11.13;;;7.30;;
64031;SDS011;50278;47.796;11.968;2023-04-06T03:36:55;9.60;;;7.05;;
64031;SDS011;50278;47.796;11.968;2023-04-06T03:39:22;13.43;;;8.20;;
64031;SDS011;50278;47.796;11.968;2023-04-06T03:41:47;12.88;;;8.23;;
64031;SDS011;50278;47.796;11.968;2023-04-06T03:44:28;16.02;;;8.45;;
64031;SDS011;50278;47.796;11.968;2023-04-06T03:46:53;13.45;;;8.10;;
64031;SDS011;50278;47.796;11.968;2023-04-06T03:49:19;13.18;;;7.97;;
64031;SDS011;50278;47.796;11.968;2023-04-06T03:51:48;16.88;;;7.93;;
64031;SDS011;50278;47.796;11.968;2023-04-06T03:54:14;12.65;;;7.43;;
64031;SDS011;50278;47.796;11.968;2023-04-06T03:56:41;10.20;;;7.50;;
64031;SDS011;50278;47.796;11.968;2023-04-06T03:59:06;12.93;;;7.70;;
64031;SDS011;50278;47.796;11.968;2023-04-06T04:01:32;12.57;;;7.70;;
64031;SDS011;50278;47.796;11.968;2023-04-06T04:03:58;11.23;;;7.82;;
64031;SDS011;50278;47.796;11.968;2023-04-06T04:06:23;15.13;;;9.10;;
64031;SDS011;50278;47.796;11.968;2023-04-06T04:08:50;12.90;;;8.23;;
64031;SDS011;50278;47.796;11.968;2023-04-06T04:11:16;14.52;;;8.65;;
64031;SDS011;50278;47.796;11.968;2023-04-06T04:13:42;11.15;;;6.72;;
64031;SDS011;50278;47.796;11.968;2023-04-06T04:16:08;9.55;;;7.38;;
64031;SDS011;50278;47.796;11.968;2023-04-06T04:18:34;12.45;;;8.70;;
64031;SDS011;50278;47.796;11.968;2023-04-06T04:21:00;12.50;;;8.32;;
64031;SDS011;50278;47.796;11.968;2023-04-06T04:23:25;15.73;;;8.15;;
64031;SDS011;50278;47.796;11.968;2023-04-06T04:25:51;12.88;;;7.78;;
64031;SDS011;50278;47.796;11.968;2023-04-06T04:28:16;12.82;;;7.82;;
64031;SDS011;50278;47.796;11.968;2023-04-06T04:30:43;12.07;;;7.70;;
64031;SDS011;50278;47.796;11.968;2023-04-06T04:33:10;13.70;;;7.38;;
64031;SDS011;50278;47.796;11.968;2023-04-06T04:35:36;11.43;;;8.38;;
64031;SDS011;50278;47.796;11.968;2023-04-06T04:38:03;12.27;;;8.20;;
64031;SDS011;50278;47.796;11.968;2023-04-06T04:40:29;15.90;;;9.50;;
64031;SDS011;50278;47.796;11.968;2023-04-06T04:43:03;15.38;;;8.80;;
64031;SDS011;50278;47.796;11.968;2023-04-06T04:45:32;14.82;;;8.52;;
64031;SDS011;50278;47.796;11.968;2023-04-06T04:48:04;14.90;;;8.98;;
64031;SDS011;50278;47.796;11.968;2023-04-06T04:50:42;12.35;;;8.27;;
64031;SDS011;50278;47.796;11.968;2023-04-06T04:53:08;14.18;;;8.95;;
64031;SDS011;50278;47.796;11.968;2023-04-06T04:55:33;13.07;;;8.40;;
64031;SDS011;50278;47.796;11.968;2023-04-06T04:58:00;11.32;;;8.05;;
64031;SDS011;50278;47.796;11.968;2023-04-06T05:00:41;10.35;;;7.20;;
64031;SDS011;50278;47.796;11.968;2023-04-06T05:03:07;13.07;;;7.75;;
64031;SDS011;50278;47.796;11.968;2023-04-06T05:05:35;13.85;;;8.70;;
64031;SDS011;50278;47.796;11.968;2023-04-06T05:08:02;12.75;;;8.05;;
64031;SDS011;50278;47.796;11.968;2023-04-06T05:10:40;11.48;;;7.75;;
64031;SDS011;50278;47.796;11.968;2023-04-06T05:13:06;15.15;;;8.25;;
64031;SDS011;50278;47.796;11.968;2023-04-06T05:15:32;14.25;;;8.65;;
64031;SDS011;50278;47.796;11.968;2023-04-06T05:18:10;16.15;;;9.32;;
64031;SDS011;50278;47.796;11.968;2023-04-06T05:20:36;17.08;;;7.65;;
64031;SDS011;50278;47.796;11.968;2023-04-06T05:23:02;11.68;;;7.15;;
64031;SDS011;50278;47.796;11.968;2023-04-06T05:25:29;13.20;;;8.60;;
64031;SDS011;50278;47.796;11.968;2023-04-06T05:28:00;12.70;;;8.75;;
64031;SDS011;50278;47.796;11.968;2023-04-06T05:30:32;13.52;;;6.97;;
64031;SDS011;50278;47.796;11.968;2023-04-06T05:32:58;13.13;;;7.82;;
64031;SDS011;50278;47.796;11.968;2023-04-06T05:35:28;13.77;;;7.35;;
64031;SDS011;50278;47.796;11.968;2023-04-06T05:37:59;10.52;;;7.85;;
64031;SDS011;50278;47.796;11.968;2023-04-06T05:40:26;9.77;;;7.10;;
64031;SDS011;50278;47.796;11.968;2023-04-06T05:42:51;11.85;;;7.18;;
64031;SDS011;50278;47.796;11.968;2023-04-06T05:45:19;9.05;;;6.50;;
64031;SDS011;50278;47.796;11.968;2023-04-06T05:47:50;7.38;;;5.32;;
64031;SDS011;50278;47.796;11.968;2023-04-06T05:50:23;8.73;;;6.03;;
64031;SDS011;50278;47.796;11.968;2023-04-06T05:52:49;8.15;;;6.25;;
64031;SDS011;50278;47.796;11.968;2023-04-06T05:55:18;9.93;;;6.72;;
64031;SDS011;50278;47.796;11.968;2023-04-06T05:57:49;13.68;;;9.00;;
64031;SDS011;50278;47.796;11.968;2023-04-06T06:00:17;15.30;;;8.70;;
64031;SDS011;50278;47.796;11.968;2023-04-06T06:02:52;18.83;;;9.73;;
64031;SDS011;50278;47.796;11.968;2023-04-06T06:05:22;17.83;;;10.55;;
64031;SDS011;50278;47.796;11.968;2023-04-06T06:07:48;14.35;;;10.35;;
64031;SDS011;50278;47.796;11.968;2023-04-06T06:10:14;13.05;;;9.05;;
64031;SDS011;50278;47.796;11.968;2023-04-06T06:12:40;19.88;;;9.35;;
64031;SDS011;50278;47.796;11.968;2023-04-06T06:15:06;16.08;;;8.50;;
64031;SDS011;50278;47.796;11.968;2023-04-06T06:17:36;14.35;;;9.63;;
64031;SDS011;50278;47.796;11.968;2023-04-06T06:20:03;17.30;;;8.10;;
64031;SDS011;50278;47.796;11.968;2023-04-06T06:22:31;13.55;;;8.50;;
64031;SDS011;50278;47.796;11.968;2023-04-06T06:25:11;18.00;;;9.25;;
64031;SDS011;50278;47.796;11.968;2023-04-06T06:27:36;13.35;;;8.52;;
64031;SDS011;50278;47.796;11.968;2023-04-06T06:30:04;13.95;;;7.95;;
64031;SDS011;50278;47.796;11.968;2023-04-06T06:32:31;13.75;;;7.35;;
64031;SDS011;50278;47.796;11.968;2023-04-06T06:34:58;9.10;;;7.03;;
64031;SDS011;50278;47.796;11.968;2023-04-06T06:37:23;9.57;;;6.82;;
64031;SDS011;50278;47.796;11.968;2023-04-06T06:39:49;9.40;;;7.10;;
64031;SDS011;50278;47.796;11.968;2023-04-06T06:42:15;17.90;;;11.10;;
64031;SDS011;50278;47.796;11.968;2023-04-06T06:44:59;14.20;;;9.05;;
64031;SDS011;50278;47.796;11.968;2023-04-06T06:47:24;11.90;;;7.63;;
64031;SDS011;50278;47.796;11.968;2023-04-06T06:49:51;9.23;;;6.65;;
64031;SDS011;50278;47.796;11.968;2023-04-06T06:52:16;8.30;;;6.43;;
64031;SDS011;50278;47.796;11.968;2023-04-06T06:54:43;12.15;;;6.38;;
64031;SDS011;50278;47.796;11.968;2023-04-06T06:57:08;10.73;;;5.60;;
64031;SDS011;50278;47.796;11.968;2023-04-06T06:59:34;10.85;;;6.55;;
64031;SDS011;50278;47.796;11.968;2023-04-06T07:02:00;7.18;;;5.53;;
64031;SDS011;50278;47.796;11.968;2023-04-06T07:04:25;11.27;;;6.22;;
64031;SDS011;50278;47.796;11.968;2023-04-06T07:06:51;8.93;;;7.22;;
64031;SDS011;50278;47.796;11.968;2023-04-06T07:09:17;10.00;;;6.55;;
64031;SDS011;50278;47.796;11.968;2023-04-06T07:11:43;9.80;;;6.25;;
64031;SDS011;50278;47.796;11.968;2023-04-06T07:14:09;9.43;;;5.68;;
64031;SDS011;50278;47.796;11.968;2023-04-06T07:16:37;9.95;;;6.22;;
64031;SDS011;50278;47.796;11.968;2023-04-06T07:19:03;9.10;;;6.13;;
64031;SDS011;50278;47.796;11.968;2023-04-06T07:21:28;7.47;;;6.03;;
64031;SDS011;50278;47.796;11.968;2023-04-06T07:23:55;10.23;;;5.93;;
64031;SDS011;50278;47.796;11.968;2023-04-06T07:26:20;7.88;;;5.35;;
64031;SDS011;50278;47.796;11.968;2023-04-06T07:28:46;8.50;;;6.20;;
64031;SDS011;50278;47.796;11.968;2023-04-06T07:31:13;8.65;;;6.20;;
64031;SDS011;50278;47.796;11.968;2023-04-06T07:33:38;8.30;;;5.68;;
64031;SDS011;50278;47.796;11.968;2023-04-06T07:36:05;31.80;;;7.25;;
64031;SDS011;50278;47.796;11.968;2023-04-06T07:38:31;15.32;;;6.50;;
64031;SDS011;50278;47.796;11.968;2023-04-06T07:40:56;8.10;;;5.80;;
64031;SDS011;50278;47.796;11.968;2023-04-06T07:43:23;8.93;;;5.50;;
64031;SDS011;50278;47.796;11.968;2023-04-06T07:45:49;7.80;;;5.75;;
64031;SDS011;50278;47.796;11.968;2023-04-06T07:48:15;7.10;;;5.47;;
64031;SDS011;50278;47.796;11.968;2023-04-06T07:50:41;10.20;;;6.72;;
64031;SDS011;50278;47.796;11.968;2023-04-06T07:53:08;7.13;;;5.55;;
64031;SDS011;50278;47.796;11.968;2023-04-06T07:55:34;7.55;;;5.75;;
64031;SDS011;50278;47.796;11.968;2023-04-06T07:58:00;10.00;;;6.03;;
64031;SDS011;50278;47.796;11.968;2023-04-06T08:00:25;9.35;;;5.82;;
64031;SDS011;50278;47.796;11.968;2023-04-06T08:02:51;7.65;;;5.45;;
64031;SDS011;50278;47.796;11.968;2023-04-06T08:05:16;8.93;;;6.10;;
64031;SDS011;50278;47.796;11.968;2023-04-06T08:07:43;8.52;;;6.00;;
64031;SDS011;50278;47.796;11.968;2023-04-06T08:10:08;9.75;;;6.15;;
64031;SDS011;50278;47.796;11.968;2023-04-06T08:12:34;9.05;;;7.00;;
64031;SDS011;50278;47.796;11.968;2023-04-06T08:15:00;10.88;;;6.43;;
64031;SDS011;50278;47.796;11.968;2023-04-06T08:17:27;10.30;;;6.13;;
64031;SDS011;50278;47.796;11.968;2023-04-06T08:19:55;10.73;;;5.78;;
64031;SDS011;50278;47.796;11.968;2023-04-06T08:22:20;9.95;;;6.70;;
64031;SDS011;50278;47.796;11.968;2023-04-06T08:24:46;12.48;;;6.45;;
64031;SDS011;50278;47.796;11.968;2023-04-06T08:27:11;11.45;;;5.93;;
64031;SDS011;50278;47.796;11.968;2023-04-06T08:29:40;8.35;;;5.78;;
64031;SDS011;50278;47.796;11.968;2023-04-06T08:32:15;7.03;;;5.75;;
64031;SDS011;50278;47.796;11.968;2023-04-06T08:34:40;9.80;;;6.20;;
64031;SDS011;50278;47.796;11.968;2023-04-06T08:37:06;7.57;;;5.53;;
64031;SDS011;50278;47.796;11.968;2023-04-06T08:39:31;8.68;;;5.88;;
64031;SDS011;50278;47.796;11.968;2023-04-06T08:41:58;7.35;;;5.70;;
64031;SDS011;50278;47.796;11.968;2023-04-06T08:44:27;8.85;;;5.65;;
64031;SDS011;50278;47.796;11.968;2023-04-06T08:46:54;8.73;;;5.70;;
64031;SDS011;50278;47.796;11.968;2023-04-06T08:49:20;7.57;;;5.25;;
64031;SDS011;50278;47.796;11.968;2023-04-06T08:51:46;7.35;;;5.50;;
64031;SDS011;50278;47.796;11.968;2023-04-06T08:54:12;9.25;;;5.13;;
64031;SDS011;50278;47.796;11.968;2023-04-06T08:56:38;7.85;;;5.30;;
64031;SDS011;50278;47.796;11.968;2023-04-06T08:59:04;15.38;;;5.78;;
64031;SDS011;50278;47.796;11.968;2023-04-06T09:01:31;6.80;;;5.35;;
64031;SDS011;50278;47.796;11.968;2023-04-06T09:04:01;7.05;;;4.75;;
64031;SDS011;50278;47.796;11.968;2023-04-06T09:06:30;8.05;;;5.18;;
64031;SDS011;50278;47.796;11.968;2023-04-06T09:08:56;8.23;;;5.32;;
64031;SDS011;50278;47.796;11.968;2023-04-06T09:11:23;9.13;;;5.35;;
64031;SDS011;50278;47.796;11.968;2023-04-06T09:13:49;7.97;;;5.45;;
64031;SDS011;50278;47.796;11.968;2023-04-06T09:16:19;7.90;;;5.15;;
64031;SDS011;50278;47.796;11.968;2023-04-06T09:18:45;5.82;;;4.22;;
64031;SDS011;50278;47.796;11.968;2023-04-06T09:21:12;6.93;;;4.70;;
64031;SDS011;50278;47.796;11.968;2023-04-06T09:23:38;5.50;;;4.60;;
64031;SDS011;50278;47.796;11.968;2023-04-06T09:26:09;7.20;;;4.68;;
64031;SDS011;50278;47.796;11.968;2023-04-06T09:28:49;7.97;;;4.63;;
64031;SDS011;50278;47.796;11.968;2023-04-06T09:31:20;8.98;;;4.72;;
64031;SDS011;50278;47.796;11.968;2023-04-06T09:33:53;5.43;;;4.78;;
64031;SDS011;50278;47.796;11.968;2023-04-06T09:36:20;6.45;;;5.18;;
64031;SDS011;50278;47.796;11.968;2023-04-06T09:39:05;6.88;;;5.03;;
64031;SDS011;50278;47.796;11.968;2023-04-06T09:41:31;5.28;;;4.50;;
64031;SDS011;50278;47.796;11.968;2023-04-06T09:44:05;10.07;;;4.60;;
64031;SDS011;50278;47.796;11.968;2023-04-06T09:46:36;6.43;;;4.90;;
64031;SDS011;50278;47.796;11.968;2023-04-06T09:49:04;8.13;;;5.15;;
64031;SDS011;50278;47.796;11.968;2023-04-06T09:51:31;6.72;;;5.45;;
64031;SDS011;50278;47.796;11.968;2023-04-06T09:54:01;6.82;;;5.75;;
64031;SDS011;50278;47.796;11.968;2023-04-06T09:56:28;6.65;;;5.38;;
64031;SDS011;50278;47.796;11.968;2023-04-06T09:59:05;5.45;;;4.85;;
64031;SDS011;50278;47.796;11.968;2023-04-06T10:01:35;6.90;;;5.45;;
64031;SDS011;50278;47.796;11.968;2023-04-06T10:04:21;6.47;;;5.00;;
64031;SDS011;50278;47.796;11.968;2023-04-06T10:06:53;6.20;;;4.80;;
64031;SDS011;50278;47.796;11.968;2023-04-06T10:09:23;6.72;;;4.85;;
64031;SDS011;50278;47.796;11.968;2023-04-06T10:11:53;5.22;;;4.65;;
64031;SDS011;50278;47.796;11.968;2023-04-06T10:14:19;6.65;;;4.95;;
64031;SDS011;50278;47.796;11.968;2023-04-06T10:16:45;7.03;;;5.15;;
64031;SDS011;50278;47.796;11.968;2023-04-06T10:19:14;6.13;;;4.90;;
64031;SDS011;50278;47.796;11.968;2023-04-06T10:21:50;8.13;;;5.00;;
64031;SDS011;50278;47.796;11.968;2023-04-06T10:24:18;5.30;;;4.80;;
64031;SDS011;50278;47.796;11.968;2023-04-06T10:26:56;6.78;;;5.18;;
64031;SDS011;50278;47.796;11.968;2023-04-06T10:29:44;5.68;;;5.13;;
64031;SDS011;50278;47.796;11.968;2023-04-06T10:32:11;7.10;;;5.57;;
64031;SDS011;50278;47.796;11.968;2023-04-06T10:34:37;7.30;;;5.50;;
64031;SDS011;50278;47.796;11.968;2023-04-06T10:37:15;5.75;;;5.05;;
64031;SDS011;50278;47.796;11.968;2023-04-06T10:39:51;7.60;;;4.57;;
64031;SDS011;50278;47.796;11.968;2023-04-06T10:42:23;6.95;;;5.03;;
64031;SDS011;50278;47.796;11.968;2023-04-06T10:44:50;6.53;;;5.65;;
64031;SDS011;50278;47.796;11.968;2023-04-06T10:47:16;6.55;;;5.78;;
64031;SDS011;50278;47.796;11.968;2023-04-06T10:49:43;6.13;;;5.25;;
64031;SDS011;50278;47.796;11.968;2023-04-06T10:52:08;5.63;;;4.90;;
64031;SDS011;50278;47.796;11.968;2023-04-06T10:54:34;6.28;;;5.43;;
64031;SDS011;50278;47.796;11.968;2023-04-06T10:57:07;5.57;;;4.90;;
64031;SDS011;50278;47.796;11.968;2023-04-06T10:59:33;8.05;;;4.82;;
64031;SDS011;50278;47.796;11.968;2023-04-06T11:01:58;10.35;;;5.65;;
64031;SDS011;50278;47.796;11.968;2023-04-06T11:04:24;9.15;;;5.00;;
64031;SDS011;50278;47.796;11.968;2023-04-06T11:06:50;8.10;;;5.65;;
64031;SDS011;50278;47.796;11.968;2023-04-06T11:09:29;7.45;;;6.00;;
64031;SDS011;50278;47.796;11.968;2023-04-06T11:11:56;6.00;;;5.00;;
64031;SDS011;50278;47.796;11.968;2023-04-06T11:14:22;7.28;;;4.50;;
64031;SDS011;50278;47.796;11.968;2023-04-06T11:16:48;11.02;;;5.40;;
64031;SDS011;50278;47.796;11.968;2023-04-06T11:19:17;6.72;;;4.85;;
64031;SDS011;50278;47.796;11.968;2023-04-06T11:21:43;6.55;;;5.28;;
64031;SDS011;50278;47.796;11.968;2023-04-06T11:24:14;5.53;;;4.93;;
64031;SDS011;50278;47.796;11.968;2023-04-06T11:26:41;9.27;;;4.53;;
64031;SDS011;50278;47.796;11.968;2023-04-06T11:29:20;8.73;;;5.38;;
64031;SDS011;50278;47.796;11.968;2023-04-06T11:31:47;6.38;;;5.00;;
64031;SDS011;50278;47.796;11.968;2023-04-06T11:34:18;21.73;;;7.07;;
64031;SDS011;50278;47.796;11.968;2023-04-06T11:36:46;8.20;;;5.40;;
64031;SDS011;50278;47.796;11.968;2023-04-06T11:39:22;7.15;;;5.30;;
64031;SDS011;50278;47.796;11.968;2023-04-06T11:42:03;5.30;;;4.80;;
64031;SDS011;50278;47.796;11.968;2023-04-06T11:44:39;9.48;;;4.97;;
64031;SDS011;50278;47.796;11.968;2023-04-06T11:47:08;4.97;;;4.35;;
64031;SDS011;50278;47.796;11.968;2023-04-06T11:49:39;6.35;;;4.75;;
64031;SDS011;50278;47.796;11.968;2023-04-06T11:54:51;6.20;;;5.00;;
64031;SDS011;50278;47.796;11.968;2023-04-06T11:57:18;10.13;;;4.93;;
64031;SDS011;50278;47.796;11.968;2023-04-06T11:59:46;7.32;;;4.60;;
64031;SDS011;50278;47.796;11.968;2023-04-06T12:02:12;5.13;;;4.63;;
64031;SDS011;50278;47.796;11.968;2023-04-06T12:04:37;7.55;;;5.15;;
64031;SDS011;50278;47.796;11.968;2023-04-06T12:07:03;11.13;;;6.00;;
64031;SDS011;50278;47.796;11.968;2023-04-06T12:09:30;5.25;;;4.47;;
64031;SDS011;50278;47.796;11.968;2023-04-06T12:11:56;7.32;;;5.75;;
64031;SDS011;50278;47.796;11.968;2023-04-06T12:14:21;7.22;;;5.07;;
64031;SDS011;50278;47.796;11.968;2023-04-06T12:16:47;6.57;;;4.45;;
64031;SDS011;50278;47.796;11.968;2023-04-06T12:19:13;6.90;;;4.88;;
64031;SDS011;50278;47.796;11.968;2023-04-06T12:21:38;8.20;;;4.03;;
64031;SDS011;50278;47.796;11.968;2023-04-06T12:24:04;6.10;;;4.45;;
64031;SDS011;50278;47.796;11.968;2023-04-06T12:26:30;4.50;;;4.10;;
64031;SDS011;50278;47.796;11.968;2023-04-06T12:28:56;4.10;;;3.72;;
64031;SDS011;50278;47.796;11.968;2023-04-06T12:33:53;4.60;;;4.10;;
64031;SDS011;50278;47.796;11.968;2023-04-06T12:36:19;4.88;;;4.00;;
64031;SDS011;50278;47.796;11.968;2023-04-06T12:38:49;15.93;;;5.13;;
64031;SDS011;50278;47.796;11.968;2023-04-06T12:41:19;5.00;;;4.50;;
64031;SDS011;50278;47.796;11.968;2023-04-06T12:43:45;4.85;;;4.30;;
64031;SDS011;50278;47.796;11.968;2023-04-06T12:46:11;5.00;;;4.13;;
64031;SDS011;50278;47.796;11.968;2023-04-06T12:48:37;5.60;;;4.10;;
64031;SDS011;50278;47.796;11.968;2023-04-06T12:51:04;4.95;;;3.95;;
64031;SDS011;50278;47.796;11.968;2023-04-06T12:53:30;4.97;;;3.80;;
64031;SDS011;50278;47.796;11.968;2023-04-06T12:55:56;5.15;;;3.80;;
64031;SDS011;50278;47.796;11.968;2023-04-06T12:58:23;7.07;;;3.97;;
64031;SDS011;50278;47.796;11.968;2023-04-06T13:00:49;17.98;;;5.18;;
64031;SDS011;50278;47.796;11.968;2023-04-06T13:03:16;4.30;;;3.85;;
64031;SDS011;50278;47.796;11.968;2023-04-06T13:05:45;6.80;;;4.35;;
64031;SDS011;50278;47.796;11.968;2023-04-06T13:08:12;18.88;;;4.80;;
64031;SDS011;50278;47.796;11.968;2023-04-06T13:10:42;5.03;;;4.38;;
64031;SDS011;50278;47.796;11.968;2023-04-06T13:13:15;5.00;;;3.80;;
64031;SDS011;50278;47.796;11.968;2023-04-06T13:15:42;22.17;;;5.47;;
64031;SDS011;50278;47.796;11.968;2023-04-06T13:18:07;5.75;;;4.20;;
64031;SDS011;50278;47.796;11.968;2023-04-06T13:20:34;7.90;;;4.13;;
64031;SDS011;50278;47.796;11.968;2023-04-06T13:23:00;5.00;;;4.00;;
64031;SDS011;50278;47.796;11.968;2023-04-06T13:25:25;11.63;;;4.68;;
64031;SDS011;50278;47.796;11.968;2023-04-06T13:27:51;15.02;;;5.05;;
64031;SDS011;50278;47.796;11.968;2023-04-06T13:30:16;5.00;;;3.97;;
64031;SDS011;50278;47.796;11.968;2023-04-06T13:32:42;5.70;;;4.57;;
64031;SDS011;50278;47.796;11.968;2023-04-06T13:35:08;4.72;;;4.15;;
64031;SDS011;50278;47.796;11.968;2023-04-06T13:37:34;6.53;;;4.50;;
64031;SDS011;50278;47.796;11.968;2023-04-06T13:40:01;6.00;;;4.10;;
64031;SDS011;50278;47.796;11.968;2023-04-06T13:42:28;9.98;;;5.32;;
64031;SDS011;50278;47.796;11.968;2023-04-06T13:44:53;14.05;;;5.32;;
64031;SDS011;50278;47.796;11.968;2023-04-06T13:47:19;5.97;;;4.50;;
64031;SDS011;50278;47.796;11.968;2023-04-06T13:49:46;4.40;;;3.92;;
64031;SDS011;50278;47.796;11.968;2023-04-06T13:52:12;5.80;;;4.18;;
64031;SDS011;50278;47.796;11.968;2023-04-06T13:54:37;4.82;;;3.55;;
64031;SDS011;50278;47.796;11.968;2023-04-06T13:57:03;5.55;;;3.85;;
64031;SDS011;50278;47.796;11.968;2023-04-06T13:59:33;8.35;;;3.85;;
64031;SDS011;50278;47.796;11.968;2023-04-06T14:01:59;4.47;;;3.33;;
64031;SDS011;50278;47.796;11.968;2023-04-06T14:04:25;4.32;;;3.20;;
64031;SDS011;50278;47.796;11.968;2023-04-06T14:06:50;5.40;;;3.20;;
64031;SDS011;50278;47.796;11.968;2023-04-06T14:09:16;5.13;;;3.10;;
64031;SDS011;50278;47.796;11.968;2023-04-06T14:11:41;4.43;;;3.45;;
64031;SDS011;50278;47.796;11.968;2023-04-06T14:14:07;7.45;;;3.80;;
64031;SDS011;50278;47.796;11.968;2023-04-06T14:16:33;9.20;;;3.97;;
64031;SDS011;50278;47.796;11.968;2023-04-06T14:18:58;6.88;;;3.92;;
64031;SDS011;50278;47.796;11.968;2023-04-06T14:21:24;7.63;;;3.53;;
64031;SDS011;50278;47.796;11.968;2023-04-06T14:23:49;11.75;;;4.10;;
64031;SDS011;50278;47.796;11.968;2023-04-06T14:26:15;5.88;;;3.60;;
64031;SDS011;50278;47.796;11.968;2023-04-06T14:28:41;4.00;;;3.55;;
64031;SDS011;50278;47.796;11.968;2023-04-06T14:31:11;5.28;;;3.60;;
64031;SDS011;50278;47.796;11.968;2023-04-06T14:33:38;7.43;;;3.90;;
64031;SDS011;50278;47.796;11.968;2023-04-06T14:36:04;9.95;;;4.15;;
64031;SDS011;50278;47.796;11.968;2023-04-06T14:38:33;4.35;;;3.95;;
64031;SDS011;50278;47.796;11.968;2023-04-06T14:40:59;4.72;;;3.95;;